Time;durP1;ratioP1;P1;durP2;ratioP2;P2;SDS_P1;SDS_P2;PMS_P1;PMS_P2;Temp;Humidity;BMP_temperature;BMP_pressure;BME280_temperature;BME280_humidity;BME280_pressure;Samples;Min_cycle;Max_cycle;Signal;HPM_P1;HPM_P2
2021/06/09 00:01:20;;;;;;;23.08;17.75;;;17.30;86.30;;;;;;4971683;28;20404;-88
2021/06/09 00:03:45;;;;;;;25.13;18.40;;;17.40;85.90;;;;;;4988914;28;20432;-86
2021/06/09 00:06:11;;;;;;;23.47;18.00;;;17.40;86.20;;;;;;4989027;28;20387;-85
2021/06/09 00:08:39;;;;;;;23.10;17.70;;;17.40;85.70;;;;;;4971108;28;20866;-86
2021/06/09 00:11:13;;;;;;;25.90;18.13;;;17.40;85.80;;;;;;4988730;28;20433;-86
2021/06/09 00:13:39;;;;;;;24.23;17.43;;;17.30;86.60;;;;;;4970723;28;20406;-85
2021/06/09 00:16:11;;;;;;;23.10;17.53;;;17.40;86.00;;;;;;4988936;28;20414;-88
2021/06/09 00:18:37;;;;;;;22.13;16.60;;;17.20;86.80;;;;;;4988941;28;20723;-88
2021/06/09 00:21:03;;;;;;;21.83;16.88;;;17.20;86.70;;;;;;4989261;28;20397;-87
2021/06/09 00:23:30;;;;;;;21.92;15.85;;;17.30;86.20;;;;;;4989205;28;20398;-87
2021/06/09 00:26:00;;;;;;;20.20;15.80;;;17.30;86.20;;;;;;4989014;28;20391;-85
2021/06/09 00:28:26;;;;;;;24.13;17.17;;;17.40;85.70;;;;;;4988621;28;20402;-87
2021/06/09 00:30:51;;;;;;;27.03;17.80;;;17.10;87.40;;;;;;4970149;28;20501;-87
2021/06/09 00:33:34;;;;;;;23.57;17.50;;;17.30;86.70;;;;;;4971707;28;20941;-88
2021/06/09 00:36:07;;;;;;;24.08;17.10;;;17.30;86.70;;;;;;4970536;28;20493;-86
2021/06/09 00:38:33;;;;;;;22.38;17.55;;;17.10;87.60;;;;;;4971069;28;20403;-87
2021/06/09 00:40:59;;;;;;;25.95;17.83;;;17.30;86.90;;;;;;4971318;28;20407;-87
2021/06/09 00:43:34;;;;;;;23.08;17.30;;;17.00;88.40;;;;;;4989117;28;20394;-87
2021/06/09 00:46:06;;;;;;;23.23;17.10;;;17.00;88.20;;;;;;4990772;28;20770;-88
2021/06/09 00:48:33;;;;;;;25.70;17.73;;;17.20;86.70;;;;;;4992113;28;20437;-86
2021/06/09 00:51:12;;;;;;;21.63;17.30;;;17.20;86.60;;;;;;4973586;28;22286;-85
2021/06/09 00:53:40;;;;;;;23.65;17.88;;;17.30;86.80;;;;;;4974917;28;20414;-86
2021/06/09 00:56:09;;;;;;;24.52;17.30;;;17.10;87.70;;;;;;4991313;28;20402;-88
2021/06/09 00:58:36;;;;;;;21.73;16.10;;;17.10;87.60;;;;;;4991802;28;20387;-87
2021/06/09 01:01:02;;;;;;;23.83;16.90;;;17.10;87.60;;;;;;4991532;28;20398;-87
2021/06/09 01:03:28;;;;;;;21.55;17.05;;;16.90;88.20;;;;;;4974412;28;20430;-87
2021/06/09 01:05:57;;;;;;;21.75;17.48;;;17.00;87.50;;;;;;4991510;28;20894;-85
2021/06/09 01:08:23;;;;;;;25.35;17.70;;;17.00;88.00;;;;;;4991054;28;20485;-84
2021/06/09 01:10:51;;;;;;;20.95;16.40;;;17.00;87.50;;;;;;4974039;28;20414;-86
2021/06/09 01:13:20;;;;;;;23.40;17.33;;;17.10;86.90;;;;;;4991637;28;20712;-85
2021/06/09 01:15:46;;;;;;;25.52;17.00;;;16.80;88.50;;;;;;4991293;28;20383;-87
2021/06/09 01:18:12;;;;;;;21.23;16.65;;;16.90;87.40;;;;;;4991064;28;20383;-86
2021/06/09 01:20:38;;;;;;;21.77;16.38;;;16.90;87.40;;;;;;4973947;28;20461;-87
2021/06/09 01:23:05;;;;;;;24.45;18.25;;;16.80;87.90;;;;;;4973519;28;20394;-86
2021/06/09 01:25:31;;;;;;;22.60;16.35;;;16.60;89.20;;;;;;4973771;28;20406;-86
2021/06/09 01:27:56;;;;;;;22.52;16.95;;;16.80;88.10;;;;;;4990538;28;20390;-84
2021/06/09 01:30:22;;;;;;;20.52;16.17;;;16.90;87.30;;;;;;4991396;28;20383;-87
2021/06/09 01:32:51;;;;;;;21.73;16.33;;;16.90;86.70;;;;;;4973401;28;20394;-86
2021/06/09 01:35:17;;;;;;;21.55;16.77;;;16.90;86.70;;;;;;4991339;28;20387;-85
2021/06/09 01:37:44;;;;;;;24.40;17.30;;;16.70;87.80;;;;;;4990304;28;20416;-86
2021/06/09 01:40:17;;;;;;;21.58;16.65;;;16.50;88.90;;;;;;4990559;28;20415;-86
2021/06/09 01:42:43;;;;;;;24.45;17.30;;;16.60;88.10;;;;;;4990923;28;20828;-86
2021/06/09 01:45:15;;;;;;;23.45;17.15;;;16.60;88.00;;;;;;4991019;28;20474;-86
2021/06/09 01:47:41;;;;;;;22.47;16.63;;;16.40;88.80;;;;;;4972858;28;20426;-87
2021/06/09 01:50:09;;;;;;;22.20;16.93;;;16.40;89.10;;;;;;4972760;28;20804;-79
2021/06/09 01:52:35;;;;;;;22.73;16.13;;;16.50;88.30;;;;;;4973426;28;20428;-85
2021/06/09 01:55:03;;;;;;;23.33;17.60;;;16.50;88.30;;;;;;4973005;28;20394;-85
2021/06/09 01:57:28;;;;;;;21.88;16.35;;;16.40;88.60;;;;;;4971873;28;20458;-85
2021/06/09 01:59:54;;;;;;;23.52;16.85;;;16.40;88.30;;;;;;4990216;28;20410;-84
2021/06/09 02:02:20;;;;;;;20.02;16.10;;;16.40;88.50;;;;;;4990730;28;20382;-85
2021/06/09 02:04:46;;;;;;;21.15;16.60;;;16.40;88.20;;;;;;4972900;28;20448;-85
2021/06/09 02:07:11;;;;;;;23.80;17.60;;;16.50;88.10;;;;;;4972523;28;20939;-84
2021/06/09 02:09:38;;;;;;;22.88;17.00;;;16.50;88.10;;;;;;4989907;28;20391;-85
2021/06/09 02:12:07;;;;;;;22.42;17.27;;;16.40;88.30;;;;;;4972860;28;20393;-85
2021/06/09 02:14:35;;;;;;;25.27;17.45;;;16.40;88.00;;;;;;4990221;28;20386;-84
2021/06/09 02:17:02;;;;;;;23.23;16.92;;;16.40;88.00;;;;;;4989968;28;20426;-84
2021/06/09 02:19:28;;;;;;;24.27;18.15;;;16.40;88.00;;;;;;4990032;28;20390;-85
2021/06/09 02:21:54;;;;;;;26.83;18.42;;;16.20;89.10;;;;;;4989619;28;20883;-85
2021/06/09 02:24:20;;;;;;;24.13;19.20;;;16.20;89.10;;;;;;4989910;28;20387;-84
2021/06/09 02:26:46;;;;;;;24.50;18.58;;;16.30;88.80;;;;;;4989482;28;20838;-84
2021/06/09 02:29:13;;;;;;;25.23;18.65;;;16.30;88.70;;;;;;4990472;28;20477;-84
2021/06/09 02:31:44;;;;;;;25.75;19.42;;;16.30;88.60;;;;;;4989473;28;20402;-84
2021/06/09 02:34:20;;;;;;;26.30;20.00;;;16.30;88.30;;;;;;4989416;28;20383;-84
2021/06/09 02:36:49;;;;;;;22.33;17.95;;;16.20;89.00;;;;;;4971883;28;20406;-84
2021/06/09 02:39:17;;;;;;;23.60;17.73;;;16.40;87.70;;;;;;4972429;28;20447;-84
2021/06/09 02:41:43;;;;;;;25.65;19.17;;;16.40;87.50;;;;;;4989702;28;20502;-84
2021/06/09 02:44:08;;;;;;;26.52;18.85;;;16.30;88.20;;;;;;4989598;28;20474;-83
2021/06/09 02:46:37;;;;;;;24.20;17.65;;;16.30;88.00;;;;;;4989617;28;20387;-83
2021/06/09 02:49:17;;;;;;;24.70;18.13;;;16.30;88.20;;;;;;4971881;28;20879;-84
2021/06/09 02:51:45;;;;;;;25.67;18.50;;;16.40;87.40;;;;;;4989882;28;20476;-84
2021/06/09 02:54:49;;;;;;;23.35;17.75;;;16.00;89.10;;;;;;4989331;28;20387;-84
2021/06/09 02:57:29;;;;;;;28.30;21.95;;;16.30;88.20;;;;;;4988839;28;20860;-83
2021/06/09 03:00:19;;;;;;;26.67;19.88;;;16.00;89.20;;;;;;4971819;28;20759;-83
2021/06/09 03:03:07;;;;;;;28.55;19.60;;;15.80;90.30;;;;;;4989552;28;20394;-83
2021/06/09 03:05:42;;;;;;;26.08;17.77;;;16.20;88.50;;;;;;4989746;28;20437;-84
2021/06/09 03:08:14;;;;;;;26.30;19.02;;;16.30;88.20;;;;;;4988092;28;20391;-84
2021/06/09 03:11:17;;;;;;;29.70;21.10;;;16.30;87.50;;;;;;4988833;28;20426;-84
2021/06/09 03:16:59;;;;;;;28.95;21.70;;;15.90;89.90;;;;;;4989079;28;20394;-84
2021/06/09 03:19:38;;;;;;;31.25;21.65;;;16.10;88.80;;;;;;4996256;28;20411;-83
2021/06/09 03:22:22;;;;;;;29.80;20.90;;;16.20;88.40;;;;;;4971499;28;20415;-84
2021/06/09 03:24:53;;;;;;;28.10;20.42;;;15.90;89.70;;;;;;4970937;28;20391;-83
2021/06/09 03:27:31;;;;;;;29.05;21.10;;;16.00;88.70;;;;;;4988851;28;20819;-84
2021/06/09 03:30:09;;;;;;;28.92;20.55;;;16.20;88.00;;;;;;4971243;28;20398;-83
2021/06/09 03:32:43;;;;;;;32.88;22.23;;;16.30;87.70;;;;;;4989009;28;20768;-84
2021/06/09 03:35:15;;;;;;;31.20;22.57;;;16.30;87.60;;;;;;4971292;28;20399;-82
2021/06/09 03:37:46;;;;;;;30.05;22.58;;;16.10;87.80;;;;;;4988610;28;20395;-83
2021/06/09 03:40:17;;;;;;;35.08;24.25;;;15.90;89.10;;;;;;4988724;28;20437;-83
2021/06/09 03:42:48;;;;;;;35.63;23.07;;;15.70;90.20;;;;;;4988443;28;20386;-83
2021/06/09 03:45:15;;;;;;;31.30;22.25;;;15.80;89.90;;;;;;4988979;28;20379;-84
2021/06/09 03:47:42;;;;;;;31.00;21.60;;;16.00;88.80;;;;;;4987974;28;20799;-83
2021/06/09 03:50:08;;;;;;;31.10;21.25;;;16.10;88.40;;;;;;4988939;28;20386;-83
2021/06/09 03:52:36;;;;;;;32.40;22.93;;;16.20;87.70;;;;;;4970838;28;20398;-84
2021/06/09 03:55:08;;;;;;;32.15;24.20;;;16.10;88.40;;;;;;4988660;28;20932;-83
2021/06/09 03:57:34;;;;;;;34.60;24.05;;;15.90;89.20;;;;;;4988004;28;20481;-84
2021/06/09 04:00:02;;;;;;;34.00;22.37;;;15.80;89.80;;;;;;4971212;28;20422;-83
2021/06/09 04:02:30;;;;;;;36.93;23.43;;;16.00;88.60;;;;;;4970367;28;20741;-83
2021/06/09 04:04:57;;;;;;;33.47;24.30;;;16.00;88.30;;;;;;4971290;28;20542;-83
2021/06/09 04:07:24;;;;;;;30.52;22.98;;;15.80;89.30;;;;;;4988253;28;20387;-83
2021/06/09 04:09:51;;;;;;;34.03;24.07;;;15.80;89.30;;;;;;4970605;28;20405;-83
2021/06/09 04:12:18;;;;;;;32.03;23.65;;;15.90;89.00;;;;;;4988395;28;20395;-83
2021/06/09 04:14:47;;;;;;;34.15;22.88;;;15.80;89.50;;;;;;4987868;28;20398;-83
2021/06/09 04:17:17;;;;;;;32.50;22.52;;;15.60;90.10;;;;;;4970897;28;20423;-83
2021/06/09 04:19:46;;;;;;;31.98;23.48;;;15.80;88.90;;;;;;4970146;28;20395;-83
2021/06/09 04:22:12;;;;;;;32.95;23.20;;;15.80;89.30;;;;;;4988166;28;20424;-82
2021/06/09 04:24:39;;;;;;;38.53;25.63;;;15.80;89.00;;;;;;4987961;28;20797;-82
2021/06/09 04:27:13;;;;;;;42.15;26.92;;;15.80;89.70;;;;;;4988047;28;20383;-83
2021/06/09 04:29:39;;;;;;;34.53;24.27;;;15.60;90.70;;;;;;4970793;28;20720;-83
2021/06/09 04:32:06;;;;;;;35.28;24.08;;;15.80;89.80;;;;;;4970931;28;20382;-83
2021/06/09 04:34:48;;;;;;;35.97;24.60;;;15.80;89.40;;;;;;4970636;28;20401;-83
2021/06/09 04:37:16;;;;;;;33.70;23.83;;;15.90;89.00;;;;;;4970087;28;20390;-83
2021/06/09 04:39:41;;;;;;;37.50;24.48;;;16.00;88.70;;;;;;4987913;28;20434;-83
2021/06/09 04:42:08;;;;;;;36.50;25.63;;;16.10;88.40;;;;;;4987960;28;20414;-83
2021/06/09 04:44:35;;;;;;;36.92;25.63;;;16.00;88.80;;;;;;4970377;28;20443;-83
2021/06/09 04:47:01;;;;;;;37.67;24.55;;;15.80;90.20;;;;;;4987601;28;20389;-83
2021/06/09 04:49:38;;;;;;;33.53;24.38;;;15.90;89.00;;;;;;4970462;28;20729;-83
2021/06/09 04:52:05;;;;;;;37.80;23.90;;;16.10;88.40;;;;;;4987553;28;20379;-83
2021/06/09 04:54:31;;;;;;;34.77;23.57;;;16.10;88.20;;;;;;4970452;28;20449;-83
2021/06/09 04:56:57;;;;;;;35.10;22.87;;;16.20;88.20;;;;;;4987347;28;20943;-83
2021/06/09 04:59:23;;;;;;;37.03;23.23;;;16.10;88.30;;;;;;4987388;28;20485;-82
2021/06/09 05:01:49;;;;;;;33.67;23.17;;;16.20;88.20;;;;;;4970277;28;20441;-84
2021/06/09 05:04:15;;;;;;;36.20;24.80;;;16.30;88.00;;;;;;4988104;28;20473;-83
2021/06/09 05:06:41;;;;;;;35.22;23.30;;;16.30;88.00;;;;;;4970346;28;20486;-83
2021/06/09 05:09:08;;;;;;;38.00;26.55;;;16.30;88.20;;;;;;4970074;28;20419;-83
2021/06/09 05:11:37;;;;;;;35.67;23.95;;;16.30;88.80;;;;;;4987710;28;20402;-83
2021/06/09 05:14:16;;;;;;;37.10;25.50;;;16.30;88.20;;;;;;4987533;28;20395;-83
2021/06/09 05:16:44;;;;;;;44.90;27.75;;;16.30;88.70;;;;;;4969736;28;20398;-83
2021/06/09 05:19:10;;;;;;;39.00;25.65;;;16.30;88.80;;;;;;4970141;28;20406;-83
2021/06/09 05:21:38;;;;;;;42.47;27.35;;;16.40;88.20;;;;;;4969757;28;20944;-79
2021/06/09 05:24:06;;;;;;;49.85;29.83;;;16.40;89.30;;;;;;4970247;28;20399;-83
2021/06/09 05:26:32;;;;;;;55.50;34.20;;;16.40;89.80;;;;;;4986852;28;20387;-84
2021/06/09 05:29:01;;;;;;;48.35;31.10;;;16.30;91.40;;;;;;4969919;28;20399;-82
2021/06/09 05:31:28;;;;;;;53.63;33.30;;;16.40;90.50;;;;;;4969593;28;20426;-82
2021/06/09 05:33:54;;;;;;;58.27;35.93;;;16.60;90.00;;;;;;4990981;28;20499;-85
2021/06/09 05:36:21;;;;;;;60.35;37.67;;;16.60;90.70;;;;;;4990961;28;20390;-86
2021/06/09 05:38:47;;;;;;;64.72;37.70;;;16.70;90.80;;;;;;4973079;28;20387;-86
2021/06/09 05:41:13;;;;;;;61.97;37.70;;;16.80;90.60;;;;;;4990470;28;20422;-83
2021/06/09 05:43:40;;;;;;;60.60;36.28;;;16.80;91.00;;;;;;4989737;28;20432;-79
2021/06/09 05:46:09;;;;;;;56.85;36.40;;;16.80;90.80;;;;;;4987061;28;20382;-83
2021/06/09 05:48:43;;;;;;;53.97;35.55;;;16.90;90.50;;;;;;4971316;28;20383;-82
2021/06/09 05:51:14;;;;;;;58.33;34.63;;;16.90;90.70;;;;;;4989736;28;20386;-82
2021/06/09 05:53:41;;;;;;;56.92;34.85;;;16.90;90.70;;;;;;4987054;28;20387;-83
2021/06/09 05:56:07;;;;;;;57.35;34.03;;;17.00;90.30;;;;;;4989205;28;20452;-83
2021/06/09 05:58:33;;;;;;;56.28;32.83;;;17.00;91.00;;;;;;4988900;28;20815;-85
2021/06/09 06:01:02;;;;;;;48.30;31.27;;;17.10;89.40;;;;;;4989572;28;20458;-83
2021/06/09 06:03:29;;;;;;;50.40;31.20;;;17.20;88.70;;;;;;4988912;28;20386;-84
2021/06/09 06:06:05;;;;;;;51.10;30.05;;;17.40;88.30;;;;;;4971804;28;20399;-85
2021/06/09 06:08:33;;;;;;;50.72;29.38;;;17.30;87.60;;;;;;4988634;28;20385;-85
2021/06/09 06:11:05;;;;;;;47.35;29.40;;;17.40;87.40;;;;;;4989260;28;20386;-86
2021/06/09 06:13:31;;;;;;;48.97;28.92;;;17.50;87.70;;;;;;4989320;28;20452;-85
2021/06/09 06:15:58;;;;;;;42.25;27.52;;;17.60;87.40;;;;;;4989224;28;20391;-86
2021/06/09 06:18:39;;;;;;;47.63;28.00;;;17.60;87.30;;;;;;4989518;28;20395;-87
2021/06/09 06:21:07;;;;;;;43.17;27.45;;;17.70;85.80;;;;;;4989138;28;20449;-85
2021/06/09 06:23:33;;;;;;;46.30;26.40;;;17.80;86.00;;;;;;4990270;28;20740;-85
2021/06/09 06:25:58;;;;;;;46.83;29.40;;;17.90;85.20;;;;;;4972098;28;20390;-84
2021/06/09 06:28:25;;;;;;;49.25;29.63;;;17.90;84.60;;;;;;4989585;28;20395;-87
2021/06/09 06:30:52;;;;;;;45.05;27.35;;;17.90;85.30;;;;;;4989191;28;20395;-83
2021/06/09 06:33:21;;;;;;;48.70;30.38;;;18.00;85.00;;;;;;4989527;28;20382;-87
2021/06/09 06:35:48;;;;;;;44.30;29.05;;;18.10;83.80;;;;;;4989546;28;20446;-88
2021/06/09 06:38:14;;;;;;;47.87;28.77;;;18.10;85.40;;;;;;4989280;28;20584;-88
2021/06/09 06:40:40;;;;;;;46.97;30.30;;;18.20;84.80;;;;;;4972033;28;20422;-87
2021/06/09 06:43:06;;;;;;;50.45;32.20;;;18.20;85.00;;;;;;4971322;28;20551;-88
2021/06/09 06:45:32;;;;;;;54.08;32.60;;;18.30;84.20;;;;;;4985246;28;20456;-88
2021/06/09 06:47:57;;;;;;;51.20;31.60;;;18.30;84.10;;;;;;4969872;28;20392;-86
2021/06/09 06:50:25;;;;;;;49.80;31.60;;;18.40;84.00;;;;;;4970145;28;20396;-88
2021/06/09 06:52:52;;;;;;;46.93;29.83;;;18.50;83.60;;;;;;4952355;28;20442;-88
2021/06/09 06:55:20;;;;;;;48.27;29.97;;;18.50;83.20;;;;;;4952429;28;20397;-86
2021/06/09 06:57:47;;;;;;;54.30;31.98;;;18.70;83.50;;;;;;4969235;28;20446;-88
2021/06/09 07:00:19;;;;;;;50.45;32.22;;;18.70;83.20;;;;;;4952473;28;20416;-88
2021/06/09 07:02:54;;;;;;;49.72;31.35;;;18.60;84.40;;;;;;4969602;28;20389;-86
2021/06/09 07:05:21;;;;;;;53.28;31.40;;;18.70;83.80;;;;;;4969352;28;20395;-85
2021/06/09 07:07:47;;;;;;;51.28;30.95;;;18.80;83.30;;;;;;4969465;28;20817;-86
2021/06/09 07:10:16;;;;;;;50.08;30.63;;;18.80;83.40;;;;;;4952164;28;20403;-87
2021/06/09 07:12:42;;;;;;;49.80;31.00;;;18.90;83.20;;;;;;4969687;28;20393;-87
2021/06/09 07:15:14;;;;;;;51.58;30.75;;;19.00;83.10;;;;;;4969405;28;20442;-88
2021/06/09 07:17:43;;;;;;;45.92;30.83;;;19.10;82.70;;;;;;4968767;28;20389;-86
2021/06/09 07:20:10;;;;;;;48.80;30.98;;;19.10;82.00;;;;;;4952565;28;20428;-88
2021/06/09 07:22:37;;;;;;;47.80;29.73;;;19.10;82.50;;;;;;4951985;28;20396;-89
2021/06/09 07:25:04;;;;;;;45.20;28.60;;;19.10;83.30;;;;;;4952196;28;20401;-88
2021/06/09 07:27:34;;;;;;;43.65;28.65;;;19.20;83.10;;;;;;4951263;28;20395;-86
2021/06/09 07:30:01;;;;;;;41.17;26.92;;;19.30;82.70;;;;;;4969350;28;20427;-86
2021/06/09 07:32:27;;;;;;;45.28;28.65;;;19.40;83.00;;;;;;4969517;28;20450;-88
2021/06/09 07:34:53;;;;;;;41.03;28.13;;;19.50;81.90;;;;;;4969260;28;20397;-83
2021/06/09 07:37:22;;;;;;;43.35;28.42;;;19.40;80.60;;;;;;4968717;28;20419;-92
2021/06/09 07:39:53;;;;;;;41.70;28.50;;;19.40;81.40;;;;;;4951989;28;20877;-91
2021/06/09 07:42:20;;;;;;;41.63;26.80;;;19.60;81.10;;;;;;4969318;28;20373;-84
2021/06/09 07:44:57;;;;;;;42.35;28.08;;;19.70;79.80;;;;;;4969190;28;20468;-84
2021/06/09 07:47:24;;;;;;;45.17;28.73;;;19.80;79.00;;;;;;4968960;28;20730;-91
2021/06/09 07:49:52;;;;;;;42.75;28.83;;;19.80;79.50;;;;;;4952388;28;20401;-90
2021/06/09 07:52:19;;;;;;;41.35;29.08;;;19.90;78.80;;;;;;4969634;28;20773;-86
2021/06/09 07:54:46;;;;;;;44.55;29.90;;;20.00;79.00;;;;;;4971174;28;20391;-90
2021/06/09 07:57:13;;;;;;;41.10;28.60;;;19.90;79.60;;;;;;4976729;28;20395;-87
2021/06/09 07:59:39;;;;;;;43.70;28.85;;;20.00;79.70;;;;;;4962451;28;20412;-88
2021/06/09 08:02:07;;;;;;;43.65;28.95;;;20.10;80.90;;;;;;4986046;28;20444;-90
2021/06/09 08:04:33;;;;;;;42.17;26.40;;;20.10;78.70;;;;;;4988124;28;20391;-88
2021/06/09 08:06:59;;;;;;;40.00;27.17;;;20.30;76.30;;;;;;4959945;28;20400;-91
2021/06/09 08:09:25;;;;;;;44.67;28.10;;;20.10;77.10;;;;;;4970006;28;20397;-91
2021/06/09 08:11:52;;;;;;;43.22;28.92;;;20.10;77.10;;;;;;4969040;28;20430;-91
2021/06/09 08:14:20;;;;;;;39.67;26.33;;;20.20;77.40;;;;;;4951539;28;20400;-93
2021/06/09 08:16:45;;;;;;;43.30;28.48;;;20.40;77.30;;;;;;4951508;28;20424;-94
2021/06/09 08:19:11;;;;;;;40.60;28.05;;;20.40;77.10;;;;;;4968343;28;20484;-88
2021/06/09 08:21:37;;;;;;;43.92;28.48;;;20.50;78.40;;;;;;4951318;28;20447;-88
2021/06/09 08:24:04;;;;;;;40.50;26.47;;;20.70;77.80;;;;;;4968975;28;20385;-92
2021/06/09 08:26:29;;;;;;;38.75;26.40;;;20.50;76.80;;;;;;4968101;28;20389;-88
2021/06/09 08:28:56;;;;;;;38.50;25.73;;;20.40;75.90;;;;;;4971170;28;20390;-92
2021/06/09 08:31:26;;;;;;;40.13;25.57;;;20.30;75.90;;;;;;4986209;28;20395;-87
2021/06/09 08:33:53;;;;;;;38.00;23.90;;;20.40;75.70;;;;;;4988525;28;20474;-89
2021/06/09 08:36:20;;;;;;;39.10;25.23;;;20.80;75.80;;;;;;4970513;28;20456;-91
2021/06/09 08:38:51;;;;;;;32.85;22.95;;;20.80;73.70;;;;;;4988027;28;20390;-94
2021/06/09 08:41:20;;;;;;;32.30;23.17;;;20.80;76.30;;;;;;4978799;28;20466;-92
2021/06/09 08:43:47;;;;;;;30.45;22.05;;;21.10;75.00;;;;;;4982739;28;20395;-92
2021/06/09 08:46:15;;;;;;;30.77;22.17;;;21.10;75.30;;;;;;4987776;28;20439;-90
2021/06/09 08:48:44;;;;;;;32.30;23.25;;;21.10;72.60;;;;;;4987275;28;20456;-90
2021/06/09 08:51:11;;;;;;;32.78;21.58;;;20.80;71.30;;;;;;4970851;28;20503;-94
2021/06/09 08:53:41;;;;;;;28.50;21.23;;;20.80;74.60;;;;;;4970529;28;20403;-93
2021/06/09 08:56:07;;;;;;;32.63;20.25;;;21.00;74.60;;;;;;4988166;28;20393;-89
2021/06/09 08:58:35;;;;;;;29.80;21.67;;;21.70;71.60;;;;;;4975957;28;20471;-93
2021/06/09 09:01:00;;;;;;;31.75;21.00;;;21.30;71.60;;;;;;4977561;28;20771;-91
2021/06/09 09:03:26;;;;;;;32.43;22.87;;;21.10;74.40;;;;;;4984074;28;20394;-93
2021/06/09 09:05:51;;;;;;;34.85;23.38;;;21.10;73.90;;;;;;4971100;28;20406;-86
2021/06/09 09:08:17;;;;;;;31.27;22.90;;;21.10;74.00;;;;;;4984973;28;20495;-92
2021/06/09 09:10:42;;;;;;;30.58;23.10;;;21.10;73.70;;;;;;4982024;28;20398;-94
2021/06/09 09:13:08;;;;;;;29.90;21.87;;;21.40;74.40;;;;;;5062460;28;20492;-91
2021/06/09 09:15:34;;;;;;;34.33;21.60;;;21.30;72.40;;;;;;4972338;28;20384;-92
2021/06/09 09:18:03;;;;;;;33.37;22.37;;;21.80;72.30;;;;;;4971288;28;20389;-88
2021/06/09 09:20:42;;;;;;;35.63;23.45;;;22.00;69.50;;;;;;4971985;28;20417;-90
2021/06/09 09:23:31;;;;;;;32.10;21.88;;;22.40;68.70;;;;;;4971918;28;20385;-91
2021/06/09 09:25:59;;;;;;;34.83;25.17;;;22.80;65.10;;;;;;4954085;28;20488;-95
2021/06/09 09:28:34;;;;;;;33.00;24.77;;;22.40;68.50;;;;;;4971592;28;20393;-94
2021/06/09 09:31:11;;;;;;;30.55;23.23;;;22.50;67.30;;;;;;4971432;28;20484;-94
2021/06/09 09:33:37;;;;;;;31.35;22.20;;;22.40;67.70;;;;;;4971626;28;20749;-87
2021/06/09 09:36:19;;;;;;;33.42;23.40;;;22.20;69.40;;;;;;4971595;28;20388;-88
2021/06/09 09:38:45;;;;;;;29.48;22.33;;;21.90;69.00;;;;;;4971225;28;20488;-94
2021/06/09 09:41:15;;;;;;;29.33;22.42;;;22.20;69.60;;;;;;4954599;28;20852;-94
2021/06/09 09:43:45;;;;;;;31.55;23.13;;;22.60;68.00;;;;;;4953847;28;20458;-90
2021/06/09 09:46:19;;;;;;;32.33;23.23;;;22.80;66.70;;;;;;4971244;28;20435;-91
2021/06/09 09:49:12;;;;;;;32.75;22.85;;;22.80;68.20;;;;;;4953349;28;20428;-88
2021/06/09 09:51:48;;;;;;;30.23;22.60;;;22.70;66.30;;;;;;4953388;28;20404;-89
2021/06/09 09:54:14;;;;;;;27.00;19.00;;;22.30;67.40;;;;;;4971392;28;20392;-89
2021/06/09 09:56:41;;;;;;;24.77;16.27;;;22.80;66.30;;;;;;4971735;28;20400;-85
2021/06/09 09:59:09;;;;;;;25.02;17.63;;;23.00;62.60;;;;;;4983612;28;20387;-89
2021/06/09 10:01:36;;;;;;;21.37;14.20;;;22.90;60.20;;;;;;4972487;28;20425;-92
2021/06/09 10:04:03;;;;;;;22.02;14.10;;;23.30;64.00;;;;;;4990522;28;20440;-89
2021/06/09 10:06:40;;;;;;;20.27;15.13;;;23.20;62.20;;;;;;4990019;28;20387;-87
2021/06/09 10:09:10;;;;;;;21.92;15.40;;;22.90;64.30;;;;;;4972961;28;20418;-89
2021/06/09 10:11:44;;;;;;;23.63;14.43;;;22.80;66.70;;;;;;4990195;28;20399;-91
2021/06/09 10:14:18;;;;;;;20.60;16.08;;;23.10;66.90;;;;;;4975263;28;20889;-92
2021/06/09 10:16:45;;;;;;;28.40;18.17;;;23.50;64.90;;;;;;4970871;28;20384;-89
2021/06/09 10:19:14;;;;;;;23.95;17.27;;;23.30;63.80;;;;;;4970047;28;20394;-93
2021/06/09 10:21:45;;;;;;;23.42;17.27;;;23.50;63.80;;;;;;4970649;28;20900;-91
2021/06/09 10:24:11;;;;;;;27.77;16.87;;;23.90;63.10;;;;;;4953465;28;20399;-90
2021/06/09 10:26:39;;;;;;;21.00;16.00;;;23.40;65.00;;;;;;4970467;28;20481;-91
2021/06/09 10:29:06;;;;;;;19.20;15.73;;;22.80;64.50;;;;;;4953512;28;20892;-92
2021/06/09 10:31:35;;;;;;;22.45;15.45;;;22.40;66.60;;;;;;4963442;28;20518;-89
2021/06/09 10:34:01;;;;;;;18.83;13.90;;;22.40;64.50;;;;;;4990057;28;20862;-92
2021/06/09 10:36:27;;;;;;;17.25;12.98;;;22.50;66.70;;;;;;4972421;28;20405;-94
2021/06/09 10:38:53;;;;;;;15.17;12.00;;;23.00;65.70;;;;;;4989560;28;20390;-90
2021/06/09 10:41:23;;;;;;;18.58;12.82;;;23.50;60.50;;;;;;4989352;28;20528;-88
2021/06/09 10:43:53;;;;;;;17.48;13.93;;;23.10;58.70;;;;;;4990046;28;20922;-94
2021/06/09 10:46:23;;;;;;;17.98;11.45;;;23.40;59.10;;;;;;4989908;28;20859;-93
2021/06/09 10:48:54;;;;;;;15.90;12.63;;;23.80;57.70;;;;;;4989928;28;20391;-92
2021/06/09 10:51:19;;;;;;;17.08;11.43;;;23.80;56.80;;;;;;4989419;28;20426;-89
2021/06/09 10:53:45;;;;;;;17.67;12.85;;;23.60;66.40;;;;;;4972480;28;20421;-88
2021/06/09 10:56:14;;;;;;;16.73;11.97;;;23.10;61.90;;;;;;4989701;28;20505;-95
2021/06/09 10:58:40;;;;;;;17.38;11.80;;;23.30;61.50;;;;;;4971975;28;20387;-89
2021/06/09 11:01:07;;;;;;;12.73;10.60;;;23.50;60.40;;;;;;4989494;28;20491;-91
2021/06/09 11:03:35;;;;;;;19.73;12.55;;;24.00;59.10;;;;;;4989540;28;20887;-93
2021/06/09 11:06:03;;;;;;;15.05;10.98;;;23.70;59.10;;;;;;4989764;28;20390;-92
2021/06/09 11:08:29;;;;;;;14.43;10.85;;;23.80;57.30;;;;;;4988853;28;20863;-92
2021/06/09 11:10:55;;;;;;;17.15;11.48;;;24.10;56.10;;;;;;4989790;28;20921;-92
2021/06/09 11:13:41;;;;;;;15.88;12.25;;;24.30;56.90;;;;;;4989592;28;20379;-89
2021/06/09 11:16:11;;;;;;;16.13;11.88;;;24.00;55.50;;;;;;4972294;28;20395;-89
2021/06/09 11:18:42;;;;;;;17.08;11.23;;;24.40;56.50;;;;;;4971852;28;20938;-94
2021/06/09 11:21:15;;;;;;;17.92;12.70;;;24.10;59.60;;;;;;4972292;28;20426;-90
2021/06/09 11:23:42;;;;;;;15.80;10.50;;;24.10;58.10;;;;;;4988819;28;21021;-91
2021/06/09 11:26:29;;;;;;;17.75;12.23;;;24.40;57.80;;;;;;4989187;28;20389;-94
2021/06/09 11:28:56;;;;;;;15.35;11.38;;;24.00;58.60;;;;;;4971380;28;20751;-84
2021/06/09 11:31:25;;;;;;;17.17;10.70;;;23.50;60.80;;;;;;4989904;28;20466;-90
2021/06/09 11:33:50;;;;;;;12.70;10.10;;;23.40;59.20;;;;;;4998520;28;20412;-83
2021/06/09 11:36:19;;;;;;;18.90;11.33;;;23.30;62.30;;;;;;5008071;28;20385;-82
2021/06/09 11:38:46;;;;;;;15.10;11.13;;;23.10;58.60;;;;;;5007286;28;20388;-84
2021/06/09 11:41:14;;;;;;;20.00;10.55;;;23.30;59.80;;;;;;5007605;28;20449;-92
2021/06/09 11:43:55;;;;;;;15.25;10.20;;;23.80;56.50;;;;;;5007408;28;20541;-81
2021/06/09 11:46:25;;;;;;;15.02;10.40;;;24.10;55.90;;;;;;4999957;28;20388;-85
2021/06/09 11:48:57;;;;;;;13.07;9.88;;;24.20;58.40;;;;;;5004026;28;20405;-80
2021/06/09 11:51:32;;;;;;;15.90;11.73;;;24.60;58.90;;;;;;4968028;28;20388;-81
2021/06/09 11:54:03;;;;;;;14.90;10.80;;;24.40;60.30;;;;;;4967996;28;20407;-83
2021/06/09 11:56:48;;;;;;;18.23;11.33;;;24.00;57.00;;;;;;4969697;28;20400;-82
2021/06/09 11:59:33;;;;;;;18.57;11.57;;;23.90;61.40;;;;;;4969071;28;20484;-83
2021/06/09 12:02:02;;;;;;;16.20;11.23;;;24.50;57.00;;;;;;5065461;28;21010;-84
2021/06/09 12:04:29;;;;;;;13.50;10.52;;;24.60;55.50;;;;;;4971018;28;20394;-82
2021/06/09 12:06:57;;;;;;;13.80;9.82;;;24.90;56.70;;;;;;4987955;28;20391;-82
2021/06/09 12:09:24;;;;;;;15.13;11.07;;;25.20;55.20;;;;;;4988917;28;20895;-82
2021/06/09 12:11:56;;;;;;;16.23;12.10;;;24.90;55.50;;;;;;4988493;28;20398;-83
2021/06/09 12:14:25;;;;;;;14.40;12.90;;;24.50;55.10;;;;;;4988429;28;20387;-88
2021/06/09 12:16:56;;;;;;;18.33;13.50;;;23.80;56.00;;;;;;4970939;28;20884;-85
2021/06/09 12:19:27;;;;;;;15.10;12.32;;;24.00;54.90;;;;;;4974462;28;20818;-83
2021/06/09 12:21:55;;;;;;;17.38;12.60;;;24.20;59.00;;;;;;4974186;28;20427;-83
2021/06/09 12:24:20;;;;;;;15.35;12.77;;;24.30;55.50;;;;;;5001228;28;20715;-85
2021/06/09 12:26:56;;;;;;;17.45;14.55;;;24.00;56.50;;;;;;4989311;28;20396;-82
2021/06/09 12:29:28;;;;;;;15.80;13.73;;;23.90;56.30;;;;;;5005607;28;20403;-84
2021/06/09 12:31:56;;;;;;;17.65;13.18;;;23.70;56.20;;;;;;5005725;28;20393;-83
2021/06/09 12:34:29;;;;;;;16.73;12.00;;;23.60;59.40;;;;;;4989089;28;20746;-83
2021/06/09 12:37:14;;;;;;;16.73;13.57;;;23.90;57.20;;;;;;5006789;28;20735;-83
2021/06/09 12:39:40;;;;;;;17.20;13.15;;;24.10;55.90;;;;;;5006758;28;20405;-85
2021/06/09 12:42:15;;;;;;;17.43;12.60;;;24.30;55.20;;;;;;4987612;28;20761;-82